Time;durP1;ratioP1;P1;durP2;ratioP2;P2;SDS_P1;SDS_P2;PMS_P1;PMS_P2;Temp;Humidity;BMP_temperature;BMP_pressure;BME280_temperature;BME280_humidity;BME280_pressure;Samples;Min_cycle;Max_cycle;Signal;HPM_P1;HPM_P2
2021/09/13 00:01:31;;;;;;;20.58;13.98;;;15.30;99.90;;;;;;5071914;28;20145;-76
2021/09/13 00:03:57;;;;;;;21.67;14.80;;;15.30;99.90;;;;;;5080420;28;20414;-76
2021/09/13 00:06:22;;;;;;;24.15;15.50;;;15.30;99.90;;;;;;5080548;28;20029;-76
2021/09/13 00:08:48;;;;;;;22.02;16.52;;;15.30;99.90;;;;;;5072953;28;20021;-77
2021/09/13 00:11:14;;;;;;;21.17;14.82;;;15.40;99.90;;;;;;5086767;28;20443;-76
2021/09/13 00:13:39;;;;;;;19.50;15.93;;;15.40;99.90;;;;;;5091041;28;20040;-77
2021/09/13 00:16:06;;;;;;;27.48;17.70;;;15.40;99.90;;;;;;5092833;28;20040;-77
2021/09/13 00:18:31;;;;;;;22.48;15.23;;;15.40;99.90;;;;;;5089413;28;20008;-78
2021/09/13 00:20:57;;;;;;;21.85;15.40;;;15.40;99.90;;;;;;5071595;28;20493;-77
2021/09/13 00:23:23;;;;;;;23.95;18.55;;;15.40;99.90;;;;;;5076002;28;20021;-77
2021/09/13 00:25:49;;;;;;;30.35;20.23;;;15.40;99.90;;;;;;5071558;28;20466;-76
2021/09/13 00:28:14;;;;;;;27.23;19.77;;;15.40;99.90;;;;;;5073502;28;20020;-77
2021/09/13 00:30:40;;;;;;;22.40;17.63;;;15.40;99.90;;;;;;5082976;28;20085;-77
2021/09/13 00:33:06;;;;;;;19.23;15.77;;;15.50;99.90;;;;;;5090924;28;20027;-77
2021/09/13 00:35:31;;;;;;;21.90;15.70;;;15.50;99.90;;;;;;5091754;28;20024;-77
2021/09/13 00:37:57;;;;;;;16.73;14.30;;;15.50;99.90;;;;;;5091239;28;20031;-77
2021/09/13 00:40:23;;;;;;;11.32;9.02;;;15.40;99.90;;;;;;5072492;28;20112;-77
2021/09/13 00:42:49;;;;;;;13.60;10.15;;;15.20;99.90;;;;;;5073825;28;20024;-77
2021/09/13 00:45:15;;;;;;;13.65;8.98;;;15.10;99.90;;;;;;5091694;28;20030;-77
2021/09/13 00:47:41;;;;;;;14.23;9.63;;;15.10;99.90;;;;;;5092643;28;20182;-77
2021/09/13 00:50:07;;;;;;;14.75;11.18;;;15.00;99.90;;;;;;5091493;28;20494;-76
2021/09/13 00:52:33;;;;;;;12.82;11.00;;;15.00;99.90;;;;;;5092817;28;20020;-77
2021/09/13 00:55:00;;;;;;;14.52;12.00;;;15.00;99.90;;;;;;5073704;28;20039;-77
2021/09/13 00:57:27;;;;;;;16.30;14.20;;;15.00;99.90;;;;;;5091110;28;20032;-77
2021/09/13 00:59:53;;;;;;;18.40;15.02;;;15.00;99.90;;;;;;5078135;28;20033;-77
2021/09/13 01:02:19;;;;;;;22.65;16.40;;;15.00;99.90;;;;;;5079869;28;20101;-77
2021/09/13 01:04:45;;;;;;;21.73;15.18;;;15.00;99.90;;;;;;5091333;28;20070;-77
2021/09/13 01:07:11;;;;;;;21.63;17.20;;;15.00;99.90;;;;;;5083575;28;20043;-77
2021/09/13 01:09:37;;;;;;;22.92;17.33;;;15.00;99.90;;;;;;5075024;28;20028;-77
2021/09/13 01:12:04;;;;;;;22.92;16.70;;;15.10;99.90;;;;;;5074574;28;20016;-77
2021/09/13 01:14:37;;;;;;;24.00;18.13;;;15.10;99.90;;;;;;5075119;28;20622;-77
2021/09/13 01:17:05;;;;;;;22.85;17.15;;;15.10;99.90;;;;;;5093873;28;20028;-77
2021/09/13 01:19:31;;;;;;;23.02;17.77;;;15.10;99.90;;;;;;5095241;28;20077;-77
2021/09/13 01:22:00;;;;;;;22.90;18.80;;;15.10;99.90;;;;;;5096481;28;20431;-77
2021/09/13 01:24:31;;;;;;;24.02;18.85;;;15.10;99.90;;;;;;5095238;28;20016;-77
2021/09/13 01:27:00;;;;;;;16.63;13.05;;;15.10;99.90;;;;;;5096320;28;20067;-77
2021/09/13 01:29:26;;;;;;;16.73;12.38;;;15.00;99.90;;;;;;5095111;28;20028;-77
2021/09/13 01:31:52;;;;;;;18.23;12.40;;;15.00;99.90;;;;;;5096152;28;20115;-77
2021/09/13 01:34:17;;;;;;;17.42;12.93;;;15.00;99.90;;;;;;5095055;28;20024;-77
2021/09/13 01:36:43;;;;;;;19.23;15.55;;;15.00;99.90;;;;;;5094861;28;20032;-76
2021/09/13 01:39:09;;;;;;;23.92;16.92;;;15.10;99.90;;;;;;5096158;28;20031;-77
2021/09/13 01:41:34;;;;;;;20.60;16.58;;;15.10;99.90;;;;;;5094779;28;20494;-77
2021/09/13 01:44:00;;;;;;;19.73;15.95;;;15.10;99.90;;;;;;5085516;28;20024;-77
2021/09/13 01:46:26;;;;;;;21.77;17.00;;;15.10;99.90;;;;;;5091984;28;20020;-77
2021/09/13 01:48:52;;;;;;;24.13;17.98;;;15.10;99.90;;;;;;5089721;28;20470;-77
2021/09/13 01:51:17;;;;;;;25.73;18.45;;;15.10;99.90;;;;;;5095347;28;20035;-77
2021/09/13 01:53:44;;;;;;;24.95;18.48;;;15.20;99.90;;;;;;5102888;28;20020;-77
2021/09/13 01:56:10;;;;;;;23.15;18.15;;;15.20;99.90;;;;;;5075899;28;20375;-77
2021/09/13 01:58:35;;;;;;;24.05;17.60;;;15.20;99.90;;;;;;5089356;28;20020;-77
2021/09/13 02:01:01;;;;;;;23.20;17.13;;;15.20;99.90;;;;;;5095181;28;20032;-77
2021/09/13 02:03:27;;;;;;;20.73;16.10;;;15.20;99.90;;;;;;5094586;28;20016;-78
2021/09/13 02:05:52;;;;;;;20.63;16.27;;;15.20;99.90;;;;;;5095522;28;20099;-77
2021/09/13 02:08:18;;;;;;;18.25;15.70;;;15.20;99.90;;;;;;5095680;28;20031;-78
2021/09/13 02:10:44;;;;;;;22.35;18.30;;;15.20;99.90;;;;;;5080918;28;20032;-78
2021/09/13 02:13:09;;;;;;;21.75;17.05;;;15.20;99.90;;;;;;5073986;28;20471;-77
2021/09/13 02:15:35;;;;;;;23.33;17.95;;;15.20;99.90;;;;;;5073969;28;20024;-77
2021/09/13 02:18:00;;;;;;;21.10;17.25;;;15.20;99.90;;;;;;5075083;28;20043;-78
2021/09/13 02:20:26;;;;;;;21.73;17.25;;;15.10;99.90;;;;;;5074658;28;20025;-77
2021/09/13 02:22:52;;;;;;;24.92;18.58;;;15.10;99.90;;;;;;5095241;28;20107;-77
2021/09/13 02:25:17;;;;;;;24.73;18.30;;;15.10;99.90;;;;;;5076317;28;20493;-77
2021/09/13 02:27:44;;;;;;;27.45;20.20;;;15.20;99.90;;;;;;5072937;28;20068;-77
2021/09/13 02:30:10;;;;;;;31.70;22.90;;;15.10;99.90;;;;;;5073505;28;20426;-77
2021/09/13 02:32:36;;;;;;;37.67;23.92;;;15.10;99.90;;;;;;5073304;28;20112;-78
2021/09/13 02:35:05;;;;;;;36.20;23.83;;;15.10;99.90;;;;;;5074867;28;20104;-77
2021/09/13 02:37:32;;;;;;;25.70;19.63;;;15.10;99.90;;;;;;5073583;28;20117;-77
2021/09/13 02:39:58;;;;;;;28.48;21.20;;;15.10;99.90;;;;;;5088404;28;20024;-77
2021/09/13 02:42:24;;;;;;;28.80;20.85;;;15.00;99.90;;;;;;5093252;28;20024;-78
2021/09/13 02:44:49;;;;;;;27.58;20.42;;;15.00;99.90;;;;;;5082831;28;20111;-77
2021/09/13 02:47:15;;;;;;;27.20;20.13;;;15.00;99.90;;;;;;5093595;28;20024;-78
2021/09/13 02:49:41;;;;;;;26.65;19.13;;;15.00;99.90;;;;;;5094782;28;20032;-78
2021/09/13 02:52:06;;;;;;;27.35;19.70;;;14.90;99.90;;;;;;5086997;28;20029;-77
2021/09/13 02:54:33;;;;;;;23.35;19.10;;;14.90;99.90;;;;;;5090574;28;20024;-77
2021/09/13 02:56:58;;;;;;;26.98;19.83;;;14.90;99.90;;;;;;5093178;28;20044;-77
2021/09/13 02:59:24;;;;;;;26.10;19.40;;;14.80;99.90;;;;;;5080741;28;20420;-77
2021/09/13 03:01:50;;;;;;;31.52;18.30;;;14.80;99.90;;;;;;5087019;28;20032;-77
2021/09/13 03:04:15;;;;;;;20.50;16.67;;;14.70;99.90;;;;;;5074266;28;20406;-77
2021/09/13 03:06:41;;;;;;;94.93;21.20;;;14.80;99.90;;;;;;5078450;28;20016;-78
2021/09/13 03:09:07;;;;;;;60.75;16.52;;;14.70;99.90;;;;;;5093072;28;20062;-78
2021/09/13 03:11:33;;;;;;;52.75;16.95;;;14.60;99.90;;;;;;5094086;28;20085;-78
2021/09/13 03:13:58;;;;;;;20.80;15.45;;;14.60;99.90;;;;;;5093088;28;20031;-77
2021/09/13 03:16:24;;;;;;;21.13;16.50;;;14.60;99.90;;;;;;5094183;28;20059;-77
2021/09/13 03:18:50;;;;;;;33.30;17.35;;;14.70;99.90;;;;;;5094296;28;20058;-77
2021/09/13 03:21:15;;;;;;;21.88;15.65;;;14.70;99.90;;;;;;5093478;28;20432;-77
2021/09/13 03:23:41;;;;;;;21.75;15.48;;;14.60;99.90;;;;;;5092901;28;20028;-77
2021/09/13 03:26:07;;;;;;;22.50;17.33;;;14.70;99.90;;;;;;5093908;28;20035;-77
2021/09/13 03:28:34;;;;;;;21.15;16.77;;;14.70;99.90;;;;;;5094124;28;20059;-77
2021/09/13 03:31:01;;;;;;;23.85;18.55;;;14.70;99.90;;;;;;5091490;28;20032;-77
2021/09/13 03:33:27;;;;;;;25.65;18.67;;;14.70;99.90;;;;;;5091455;28;20040;-77
2021/09/13 03:35:53;;;;;;;29.95;20.67;;;14.70;99.90;;;;;;5086526;28;20028;-77
2021/09/13 03:38:18;;;;;;;29.65;20.33;;;14.60;99.90;;;;;;5091209;28;20036;-77
2021/09/13 03:40:44;;;;;;;28.77;20.33;;;14.60;99.90;;;;;;5074594;28;20107;-77
2021/09/13 03:43:10;;;;;;;27.75;20.45;;;14.60;99.90;;;;;;5088781;28;20053;-77
2021/09/13 03:45:35;;;;;;;28.02;19.85;;;14.60;99.90;;;;;;5078839;28;20084;-77
2021/09/13 03:48:01;;;;;;;26.73;19.92;;;14.60;99.90;;;;;;5086516;28;20031;-77
2021/09/13 03:50:27;;;;;;;26.80;20.58;;;14.60;99.90;;;;;;5092445;28;20111;-77
2021/09/13 03:52:52;;;;;;;21.95;18.08;;;14.60;99.90;;;;;;5079320;28;20532;-77
2021/09/13 03:55:18;;;;;;;22.50;17.80;;;14.60;99.90;;;;;;5072051;28;20074;-77
2021/09/13 03:57:44;;;;;;;24.83;18.88;;;14.50;99.90;;;;;;5072164;28;20033;-77
2021/09/13 04:00:11;;;;;;;30.75;20.52;;;14.50;99.90;;;;;;5074947;28;20031;-77
2021/09/13 04:02:40;;;;;;;26.38;20.13;;;14.40;99.90;;;;;;5080740;28;20490;-77
2021/09/13 04:05:06;;;;;;;23.67;18.35;;;14.40;99.90;;;;;;5078668;28;20028;-77
2021/09/13 04:13:14;;;;;;;47.67;16.73;;;14.40;99.90;;;;;;5091506;28;20157;-77
2021/09/13 04:15:40;;;;;;;87.82;17.55;;;14.20;99.90;;;;;;5093256;28;20480;-77
2021/09/13 04:18:06;;;;;;;49.08;17.05;;;14.10;99.90;;;;;;5091903;28;20032;-77
2021/09/13 04:20:31;;;;;;;42.92;15.55;;;14.10;99.90;;;;;;5093180;28;20021;-77
2021/09/13 04:22:57;;;;;;;30.52;17.30;;;14.00;99.90;;;;;;5090607;28;20074;-77
2021/09/13 04:25:23;;;;;;;36.25;18.55;;;14.00;99.90;;;;;;5071708;28;20039;-77
2021/09/13 04:27:48;;;;;;;26.05;19.20;;;14.10;99.90;;;;;;5089746;28;20508;-78
2021/09/13 04:30:14;;;;;;;28.70;19.38;;;14.10;99.90;;;;;;5093039;28;20020;-77
2021/09/13 04:32:39;;;;;;;30.50;19.25;;;14.20;99.90;;;;;;5091807;28;20039;-77
2021/09/13 04:35:05;;;;;;;48.40;20.58;;;14.20;99.90;;;;;;5080655;28;20027;-77
2021/09/13 04:37:31;;;;;;;60.47;19.40;;;14.20;99.90;;;;;;5080353;28;20024;-77
2021/09/13 04:39:56;;;;;;;22.35;15.63;;;14.20;99.90;;;;;;5081470;28;20047;-77
2021/09/13 04:42:22;;;;;;;22.27;17.35;;;14.10;99.90;;;;;;5090933;28;20017;-77
2021/09/13 04:44:48;;;;;;;21.58;16.75;;;14.20;99.90;;;;;;5089919;28;20031;-77
2021/09/13 04:47:13;;;;;;;33.70;17.85;;;14.20;99.90;;;;;;5090257;28;20032;-78
2021/09/13 04:49:39;;;;;;;43.67;19.25;;;14.20;99.90;;;;;;5090466;28;20494;-77
2021/09/13 04:52:05;;;;;;;23.05;16.85;;;14.20;99.90;;;;;;5092225;28;20099;-78
2021/09/13 04:54:31;;;;;;;25.13;18.85;;;14.20;99.90;;;;;;5090966;28;20055;-78
2021/09/13 04:56:56;;;;;;;24.95;17.90;;;14.20;99.90;;;;;;5091233;28;20032;-78
2021/09/13 04:59:22;;;;;;;48.72;23.30;;;14.30;99.90;;;;;;5090601;28;20063;-78
2021/09/13 05:01:47;;;;;;;42.58;24.85;;;14.30;99.90;;;;;;5090626;28;20024;-78
2021/09/13 05:04:13;;;;;;;46.22;24.70;;;14.40;99.90;;;;;;5084926;28;20044;-77
2021/09/13 05:06:39;;;;;;;31.90;21.75;;;14.40;99.90;;;;;;5077963;28;20058;-77
2021/09/13 05:09:05;;;;;;;35.22;21.25;;;14.40;99.90;;;;;;5090879;28;20502;-78
2021/09/13 05:11:31;;;;;;;34.85;22.20;;;14.50;99.90;;;;;;5093578;28;20478;-78
2021/09/13 05:13:57;;;;;;;44.75;21.40;;;14.50;99.90;;;;;;5092466;28;20030;-78
2021/09/13 05:16:23;;;;;;;40.15;22.48;;;14.60;99.90;;;;;;5086697;28;20024;-78
2021/09/13 05:18:48;;;;;;;42.40;24.50;;;14.60;99.90;;;;;;5070838;28;20036;-79
2021/09/13 05:21:15;;;;;;;36.67;22.45;;;14.70;99.90;;;;;;5088746;28;20020;-78
2021/09/13 05:23:41;;;;;;;38.88;21.25;;;14.70;99.90;;;;;;5080210;28;20082;-78
2021/09/13 05:26:07;;;;;;;44.50;23.25;;;14.80;99.90;;;;;;5085176;28;20408;-78
2021/09/13 05:28:32;;;;;;;36.63;24.20;;;14.80;99.90;;;;;;5081939;28;20037;-78
2021/09/13 05:30:59;;;;;;;29.52;20.90;;;14.90;99.90;;;;;;5068492;28;20516;-78
2021/09/13 05:33:24;;;;;;;34.45;22.38;;;15.00;99.90;;;;;;5068649;28;20151;-78
2021/09/13 05:35:50;;;;;;;28.75;21.88;;;15.00;99.90;;;;;;5088674;28;20151;-79
2021/09/13 05:38:16;;;;;;;27.45;19.70;;;15.10;99.90;;;;;;5084516;28;20074;-77
2021/09/13 05:40:43;;;;;;;29.63;21.27;;;15.10;99.90;;;;;;5088018;28;20031;-77
2021/09/13 05:43:09;;;;;;;33.58;22.58;;;15.20;99.90;;;;;;5088728;28;20048;-78
2021/09/13 05:45:35;;;;;;;35.63;23.67;;;15.20;99.90;;;;;;5092173;28;20483;-78
2021/09/13 05:48:02;;;;;;;37.78;25.50;;;15.20;99.90;;;;;;5088479;28;20027;-79
2021/09/13 05:50:28;;;;;;;35.25;25.08;;;15.20;99.90;;;;;;5089502;28;20063;-78
2021/09/13 05:52:54;;;;;;;33.30;22.25;;;15.30;99.90;;;;;;5088520;28;20050;-78
2021/09/13 05:55:21;;;;;;;26.17;19.58;;;15.30;99.90;;;;;;5091331;28;20233;-78
2021/09/13 05:57:47;;;;;;;33.65;19.27;;;15.30;99.90;;;;;;5093293;28;20131;-79
2021/09/13 06:00:13;;;;;;;40.50;22.42;;;15.30;99.90;;;;;;5093792;28;20169;-78
2021/09/13 06:02:39;;;;;;;46.80;23.60;;;15.30;99.90;;;;;;5095253;28;20070;-78
2021/09/13 06:05:05;;;;;;;39.03;22.75;;;15.40;99.90;;;;;;5095312;28;20444;-77
2021/09/13 06:07:31;;;;;;;47.20;25.35;;;15.40;99.90;;;;;;5092222;28;20034;-79
2021/09/13 06:09:56;;;;;;;37.85;24.02;;;15.50;99.90;;;;;;5081138;28;20028;-78
2021/09/13 06:12:22;;;;;;;47.03;27.65;;;15.50;99.90;;;;;;5094037;28;20478;-78
2021/09/13 06:14:48;;;;;;;42.40;25.70;;;15.60;99.90;;;;;;5080297;28;20035;-78
2021/09/13 06:17:13;;;;;;;42.47;26.02;;;15.60;99.90;;;;;;5082933;28;20050;-78
2021/09/13 06:19:39;;;;;;;47.42;26.85;;;15.70;99.90;;;;;;5094148;28;20012;-78
2021/09/13 06:22:05;;;;;;;51.05;27.65;;;15.70;99.90;;;;;;5082127;28;20043;-78
2021/09/13 06:24:31;;;;;;;40.80;25.88;;;15.80;99.90;;;;;;5074667;28;20474;-78
2021/09/13 06:26:57;;;;;;;37.95;25.45;;;15.80;99.90;;;;;;5074616;28;20029;-78
2021/09/13 06:29:23;;;;;;;38.83;26.00;;;15.90;99.90;;;;;;5094505;28;20448;-78
2021/09/13 06:31:49;;;;;;;37.78;26.55;;;16.00;99.90;;;;;;5095216;28;20024;-78
2021/09/13 06:34:16;;;;;;;34.83;26.48;;;16.00;99.90;;;;;;5092984;28;20031;-78
2021/09/13 06:36:43;;;;;;;37.33;26.13;;;16.10;99.90;;;;;;5092805;28;20493;-78
2021/09/13 06:39:09;;;;;;;54.80;37.20;;;16.20;99.90;;;;;;5083766;28;20035;-78
2021/09/13 06:41:35;;;;;;;47.65;32.58;;;16.30;99.90;;;;;;5092609;28;20027;-78
2021/09/13 06:44:01;;;;;;;53.60;35.80;;;16.30;99.90;;;;;;5085633;28;20032;-78
2021/09/13 06:46:35;;;;;;;36.92;26.60;;;16.40;99.90;;;;;;5093903;28;20027;-78
2021/09/13 06:49:01;;;;;;;45.55;30.95;;;16.50;99.90;;;;;;5094949;28;20031;-78
2021/09/13 06:51:26;;;;;;;46.90;32.67;;;16.60;99.90;;;;;;5089417;28;20025;-78
2021/09/13 06:53:52;;;;;;;36.25;26.92;;;16.70;99.90;;;;;;5080131;28;20023;-79
2021/09/13 06:56:17;;;;;;;37.00;26.63;;;16.80;99.90;;;;;;5094459;28;20028;-78
2021/09/13 06:58:43;;;;;;;43.50;30.05;;;17.10;99.90;;;;;;5086554;28;20486;-78
2021/09/13 07:01:09;;;;;;;42.78;29.90;;;17.20;99.90;;;;;;5092878;28;20481;-78
2021/09/13 07:03:35;;;;;;;31.92;24.05;;;17.30;99.90;;;;;;5073765;28;20059;-79
2021/09/13 07:06:01;;;;;;;36.38;25.30;;;17.40;99.90;;;;;;5089432;28;20081;-78
2021/09/13 07:08:27;;;;;;;31.67;23.42;;;17.50;99.90;;;;;;5077508;28;20394;-78
2021/09/13 07:10:54;;;;;;;32.95;24.63;;;17.50;99.90;;;;;;5089781;28;20031;-78
2021/09/13 07:13:20;;;;;;;42.15;28.20;;;17.70;99.90;;;;;;5092865;28;20024;-78
2021/09/13 07:15:46;;;;;;;41.38;27.10;;;17.90;99.90;;;;;;5093214;28;20042;-78
2021/09/13 07:18:13;;;;;;;38.95;26.48;;;18.00;99.90;;;;;;5089308;28;20040;-79
2021/09/13 07:20:40;;;;;;;37.83;26.30;;;18.20;99.90;;;;;;5092193;28;20024;-78
2021/09/13 07:23:06;;;;;;;37.03;27.27;;;18.30;99.90;;;;;;5072612;28;20021;-78
2021/09/13 07:25:31;;;;;;;40.25;27.50;;;18.40;99.90;;;;;;5072582;28;20107;-78
2021/09/13 07:27:57;;;;;;;35.63;25.58;;;18.70;99.90;;;;;;5074590;28;20573;-78
2021/09/13 07:30:23;;;;;;;30.90;22.52;;;18.90;99.90;;;;;;5092478;28;20534;-78
2021/09/13 07:32:49;;;;;;;41.55;28.48;;;19.00;99.90;;;;;;5091545;28;20012;-78
2021/09/13 07:35:15;;;;;;;30.20;22.67;;;19.10;99.90;;;;;;5092742;28;20403;-78
2021/09/13 07:37:41;;;;;;;31.08;22.98;;;19.20;99.90;;;;;;5093460;28;20115;-78
2021/09/13 07:40:08;;;;;;;29.63;23.23;;;19.10;99.90;;;;;;5093799;28;20063;-78
2021/09/13 07:42:34;;;;;;;28.27;21.73;;;19.00;99.90;;;;;;5093893;28;20016;-78
2021/09/13 07:45:02;;;;;;;32.42;22.55;;;19.10;99.90;;;;;;5074572;28;20032;-78
2021/09/13 07:47:29;;;;;;;29.83;22.08;;;19.20;99.90;;;;;;5092539;28;20031;-78
2021/09/13 07:49:55;;;;;;;30.88;22.15;;;19.20;99.90;;;;;;5077491;28;20429;-78
2021/09/13 07:52:21;;;;;;;26.08;20.77;;;19.20;99.90;;;;;;5084726;28;20072;-79
2021/09/13 07:54:46;;;;;;;29.05;21.92;;;19.30;99.90;;;;;;5114005;28;20170;-78
2021/09/13 07:57:12;;;;;;;30.95;23.08;;;19.30;99.90;;;;;;5108574;28;20085;-78
2021/09/13 07:59:37;;;;;;;31.02;22.55;;;19.40;99.90;;;;;;5082352;28;20081;-78
2021/09/13 08:02:03;;;;;;;30.20;22.52;;;19.30;99.90;;;;;;5086736;28;20016;-79
2021/09/13 08:04:29;;;;;;;31.73;24.55;;;19.20;99.90;;;;;;5083689;28;20125;-78
2021/09/13 08:06:54;;;;;;;26.73;21.33;;;19.20;99.90;;;;;;5084104;28;20031;-79
2021/09/13 08:09:20;;;;;;;39.63;29.30;;;19.40;99.90;;;;;;5087648;28;20025;-78
2021/09/13 08:11:46;;;;;;;34.58;23.98;;;19.70;99.90;;;;;;5092489;28;20026;-78
2021/09/13 08:14:11;;;;;;;25.38;18.95;;;20.00;99.90;;;;;;5092062;28;20024;-78
2021/09/13 08:16:37;;;;;;;29.30;20.30;;;20.20;99.90;;;;;;5091367;28;20081;-79
2021/09/13 08:19:03;;;;;;;24.75;17.77;;;20.20;99.90;;;;;;5088780;28;20088;-78
2021/09/13 08:21:29;;;;;;;22.63;14.40;;;20.40;99.90;;;;;;5072751;28;20028;-78
2021/09/13 08:23:55;;;;;;;16.75;13.13;;;20.60;99.90;;;;;;5091441;28;20008;-79
2021/09/13 08:26:21;;;;;;;16.15;12.38;;;20.80;99.90;;;;;;5092837;28;20028;-78
2021/09/13 08:28:47;;;;;;;15.07;13.48;;;20.90;99.90;;;;;;5084736;28;20500;-79
2021/09/13 08:31:13;;;;;;;15.05;13.48;;;21.10;99.90;;;;;;5091792;28;20024;-79
2021/09/13 08:33:39;;;;;;;15.98;13.82;;;21.20;99.90;;;;;;5071913;28;20173;-79
2021/09/13 08:36:06;;;;;;;18.48;16.00;;;21.30;99.90;;;;;;5072729;28;20017;-79
2021/09/13 08:38:32;;;;;;;15.23;13.63;;;20.90;99.90;;;;;;5091366;28;20035;-79
2021/09/13 08:40:58;;;;;;;13.90;12.50;;;20.80;99.90;;;;;;5092933;28;20024;-79
2021/09/13 08:43:24;;;;;;;16.55;14.23;;;20.70;99.90;;;;;;5093036;28;20020;-79
2021/09/13 08:46:00;;;;;;;14.45;12.93;;;20.70;99.90;;;;;;5091142;28;20024;-79
2021/09/13 08:48:34;;;;;;;15.60;12.65;;;20.70;99.90;;;;;;5090424;28;20027;-79
2021/09/13 08:51:06;;;;;;;16.23;13.73;;;20.70;99.90;;;;;;5092935;28;20020;-79
2021/09/13 08:53:36;;;;;;;14.90;11.93;;;20.60;99.90;;;;;;5085705;28;20430;-79
2021/09/13 08:56:04;;;;;;;16.70;13.02;;;20.40;99.90;;;;;;5090899;28;20028;-79
2021/09/13 08:58:34;;;;;;;14.88;13.05;;;20.50;99.90;;;;;;5089145;28;20036;-79
2021/09/13 09:01:00;;;;;;;13.18;11.55;;;20.40;99.90;;;;;;5090582;28;20024;-79
2021/09/13 09:03:27;;;;;;;15.25;13.07;;;20.40;99.90;;;;;;5090846;28;20038;-79
2021/09/13 09:05:53;;;;;;;16.92;13.80;;;20.70;99.90;;;;;;5092693;28;20040;-79
2021/09/13 09:08:29;;;;;;;14.38;12.88;;;21.00;99.90;;;;;;5090074;28;20052;-79
2021/09/13 09:11:02;;;;;;;12.45;11.15;;;21.20;99.90;;;;;;5091344;28;20355;-79
2021/09/13 09:13:43;;;;;;;14.82;12.52;;;21.40;99.90;;;;;;5091545;28;20065;-79
2021/09/13 09:16:13;;;;;;;14.15;11.25;;;21.60;99.90;;;;;;5091085;28;20111;-79
2021/09/13 09:18:43;;;;;;;12.77;11.38;;;21.50;99.90;;;;;;5087400;28;20039;-79
2021/09/13 09:21:25;;;;;;;14.38;12.20;;;21.50;99.90;;;;;;5083889;28;20035;-79
2021/09/13 09:24:06;;;;;;;13.38;12.02;;;21.20;99.90;;;;;;5087820;28;20024;-79
2021/09/13 09:26:32;;;;;;;17.48;12.13;;;21.10;99.90;;;;;;5071032;28;20020;-79
2021/09/13 09:29:00;;;;;;;12.70;11.35;;;21.40;99.90;;;;;;5085806;28;20030;-79
2021/09/13 09:31:38;;;;;;;11.48;10.32;;;21.30;99.90;;;;;;5078780;28;20056;-79
2021/09/13 09:34:14;;;;;;;12.88;11.57;;;21.30;99.90;;;;;;5074961;28;20436;-79
2021/09/13 09:36:40;;;;;;;11.18;9.77;;;21.30;99.90;;;;;;5089459;28;20028;-79
2021/09/13 09:39:13;;;;;;;16.23;9.65;;;21.10;99.90;;;;;;5111265;28;20085;-79
2021/09/13 09:41:46;;;;;;;10.90;9.80;;;21.10;99.90;;;;;;5092274;28;20027;-79
2021/09/13 09:44:11;;;;;;;9.82;8.93;;;21.10;99.90;;;;;;5094921;28;20382;-79
2021/09/13 09:46:44;;;;;;;10.27;9.27;;;21.00;99.90;;;;;;5096018;28;20103;-79
2021/09/13 09:49:15;;;;;;;11.55;9.60;;;21.00;99.90;;;;;;5090672;28;20024;-79
2021/09/13 09:51:49;;;;;;;11.13;10.02;;;21.10;99.90;;;;;;5111435;28;20078;-79
2021/09/13 09:54:26;;;;;;;9.98;8.98;;;21.30;99.90;;;;;;5075373;28;20532;-79
2021/09/13 09:57:06;;;;;;;11.48;10.00;;;21.40;99.90;;;;;;5074933;28;20502;-79
2021/09/13 09:59:43;;;;;;;9.52;8.40;;;21.40;99.90;;;;;;5074354;28;20036;-79
2021/09/13 10:02:17;;;;;;;11.35;8.82;;;21.30;99.90;;;;;;5075597;28;20478;-79
2021/09/13 10:04:46;;;;;;;9.77;8.73;;;21.30;99.90;;;;;;5099928;28;20012;-79
2021/09/13 10:07:14;;;;;;;11.27;9.10;;;21.40;99.90;;;;;;5115877;28;20023;-79
2021/09/13 10:09:41;;;;;;;10.98;9.90;;;21.60;99.90;;;;;;5114741;28;20027;-79
2021/09/13 10:12:06;;;;;;;11.90;9.15;;;21.90;99.90;;;;;;5114747;28;20106;-79
2021/09/13 10:14:35;;;;;;;9.35;8.45;;;22.00;99.90;;;;;;5092927;28;20024;-79
2021/09/13 10:17:01;;;;;;;10.13;8.23;;;22.20;99.90;;;;;;5080408;28;20047;-79
2021/09/13 10:19:27;;;;;;;9.20;8.32;;;22.40;99.90;;;;;;5111198;28;20059;-79
2021/09/13 10:21:54;;;;;;;8.45;7.55;;;22.70;99.90;;;;;;5084786;28;20367;-79
2021/09/13 10:24:24;;;;;;;7.97;7.22;;;22.90;96.10;;;;;;5087420;28;20028;-79
2021/09/13 10:26:55;;;;;;;7.65;6.95;;;22.60;88.70;;;;;;5095335;28;20024;-79
2021/09/13 10:29:26;;;;;;;7.55;6.75;;;22.50;87.00;;;;;;5095402;28;20024;-79
2021/09/13 10:31:51;;;;;;;8.27;7.22;;;22.30;87.60;;;;;;5110915;28;20063;-79
2021/09/13 10:34:30;;;;;;;6.60;6.00;;;22.20;83.20;;;;;;5107039;28;20060;-79
2021/09/13 10:36:58;;;;;;;6.35;5.75;;;22.30;85.40;;;;;;5074751;28;20136;-79
2021/09/13 10:39:49;;;;;;;7.03;6.32;;;22.50;83.10;;;;;;5073277;28;20020;-79
2021/09/13 10:42:50;;;;;;;8.50;7.07;;;22.50;83.80;;;;;;5073675;28;20020;-79
2021/09/13 10:45:19;;;;;;;8.30;7.50;;;22.40;90.50;;;;;;5083211;28;20029;-79
2021/09/13 10:48:20;;;;;;;7.90;7.10;;;22.30;90.80;;;;;;5091160;28;20463;-79
2021/09/13 10:50:54;;;;;;;8.15;7.35;;;22.20;91.80;;;;;;5088247;28;20131;-79
2021/09/13 10:53:20;;;;;;;7.20;6.55;;;22.20;95.50;;;;;;5110131;28;20570;-79
2021/09/13 10:55:54;;;;;;;7.47;6.75;;;22.40;90.70;;;;;;5102455;28;20029;-79
2021/09/13 10:58:39;;;;;;;7.28;6.50;;;22.50;87.20;;;;;;5074470;28;20130;-79
2021/09/13 11:01:09;;;;;;;6.95;6.22;;;22.40;82.70;;;;;;5073420;28;20024;-79
2021/09/13 11:03:40;;;;;;;6.97;6.30;;;22.30;83.10;;;;;;5074462;28;20027;-79
2021/09/13 11:06:15;;;;;;;7.20;6.60;;;22.20;86.10;;;;;;5074219;28;20078;-79
2021/09/13 11:08:45;;;;;;;7.10;6.40;;;22.10;82.40;;;;;;5089632;28;20059;-79
2021/09/13 11:11:12;;;;;;;6.93;6.32;;;21.90;86.40;;;;;;5110170;28;20110;-79
2021/09/13 11:13:39;;;;;;;7.68;6.95;;;21.90;90.10;;;;;;5110182;28;20027;-79
2021/09/13 11:16:05;;;;;;;8.00;7.30;;;21.80;92.40;;;;;;5094228;28;20034;-79
2021/09/13 11:18:34;;;;;;;8.38;7.63;;;21.60;96.70;;;;;;5110045;28;20032;-79
2021/09/13 11:21:24;;;;;;;9.60;8.68;;;21.40;95.50;;;;;;5110178;28;20055;-79
2021/09/13 11:24:01;;;;;;;9.38;8.32;;;21.30;96.20;;;;;;5109959;28;20036;-79
2021/09/13 11:26:31;;;;;;;9.35;8.43;;;21.10;93.70;;;;;;5087539;28;20046;-79
2021/09/13 11:29:10;;;;;;;9.45;8.45;;;20.90;96.80;;;;;;5107911;28;20012;-79
2021/09/13 11:31:41;;;;;;;10.50;9.20;;;21.00;96.90;;;;;;5090945;28;20055;-79
2021/09/13 11:34:41;;;;;;;8.60;7.80;;;21.10;97.00;;;;;;5093626;28;20075;-79
2021/09/13 11:37:17;;;;;;;9.18;8.27;;;21.50;99.50;;;;;;5087036;28;20056;-79
2021/09/13 11:39:51;;;;;;;10.55;8.88;;;21.70;93.10;;;;;;5109270;28;20020;-79
2021/09/13 11:42:24;;;;;;;10.20;8.48;;;21.90;93.30;;;;;;5107119;28;20101;-79
2021/09/13 11:44:59;;;;;;;10.30;7.68;;;22.10;90.40;;;;;;5088145;28;20012;-79
2021/09/13 11:47:28;;;;;;;9.48;8.57;;;22.30;90.70;;;;;;5093622;28;20035;-79
2021/09/13 11:49:56;;;;;;;9.93;8.93;;;22.40;86.30;;;;;;5092041;28;20020;-79
2021/09/13 11:52:30;;;;;;;8.15;7.22;;;22.70;90.30;;;;;;5093606;28;20024;-79
2021/09/13 11:55:07;;;;;;;12.20;9.13;;;22.80;80.60;;;;;;5093506;28;20033;-79
2021/09/13 11:57:37;;;;;;;8.30;7.40;;;23.00;82.00;;;;;;5109276;28;20040;-79
2021/09/13 12:00:20;;;;;;;8.93;7.20;;;23.00;72.80;;;;;;5090403;28;20028;-79
2021/09/13 12:02:52;;;;;;;12.30;8.60;;;23.20;78.30;;;;;;5079288;28;20036;-79
2021/09/13 12:05:21;;;;;;;8.98;7.05;;;23.30;74.90;;;;;;5073300;28;20394;-79
2021/09/13 12:07:48;;;;;;;7.35;6.60;;;23.30;73.30;;;;;;5073075;28;20024;-79
2021/09/13 12:10:31;;;;;;;7.80;7.00;;;23.10;70.50;;;;;;5088007;28;20024;-79
2021/09/13 12:13:08;;;;;;;13.65;10.07;;;23.10;72.10;;;;;;5067263;28;20394;-78
2021/09/13 12:15:35;;;;;;;35.13;23.60;;;22.90;73.80;;;;;;5069518;28;20040;-79
2021/09/13 12:18:07;;;;;;;8.27;7.55;;;22.80;74.90;;;;;;5089105;28;20035;-79
2021/09/13 12:20:40;;;;;;;7.10;6.43;;;22.50;73.60;;;;;;5091198;28;20024;-79
2021/09/13 12:23:08;;;;;;;7.38;6.63;;;22.30;73.50;;;;;;5089537;28;20088;-79
2021/09/13 12:25:47;;;;;;;8.25;7.15;;;22.10;74.70;;;;;;5085824;28;20035;-79
2021/09/13 12:28:19;;;;;;;7.35;6.75;;;21.90;76.40;;;;;;5076327;28;20026;-79
2021/09/13 12:30:50;;;;;;;;;;;21.70;78.30;;;;;;5091718;28;20438;-79
2021/09/13 12:33:15;;;;;;;10.82;9.73;;;21.50;87.70;;;;;;5084259;28;20266;-78
2021/09/13 12:35:42;;;;;;;14.80;9.25;;;21.30;96.10;;;;;;5069939;28;20021;-78
2021/09/13 12:38:16;;;;;;;11.45;10.10;;;21.10;99.40;;;;;;5069339;28;20527;-78
2021/09/13 12:40:58;;;;;;;12.30;9.68;;;20.90;99.90;;;;;;5071471;28;20043;-78